Etusivu
METAR-TAF:

METAR-TAF

Lentoasemat :

St. Paul Downtown Airport (Holman Field)

Saint Paul, Minnesota, Yhdysvallat

Leveyspiiri: 44-55-49N, Pituuspiiri: 093-02-53W, korkeus merenpinnasta: 214 m

Tämänhetkinen sää

Tämä raportti tehtiin 1 tunti ja 3 minuuttia sitten, kello 22.53 UTC
Tuuli 16 kn luoteesta puuskistuen 24 kn:hen
Lämpötila 21°C
Kosteus 20%
Ilmanpaine 1009 hPa
Näkyvyys: 16.1 km
selkeää

METAR: KSTP 252253Z 32016G24KT 10SM CLR 21/M03 A2981 RMK AO2 PK WND 31029/2216 SLP092 T02061033

Aika: 18:56 (23:56 UTC)


TAF: puuttuu

Säähavainnot ja -ennusteet yli 4000 lentoasemalta (METAR- ja TAF-raportit).

Käytössä olevat sääasemat on merkitty karttaan keltaisilla ja punaisilla pisteillä.

Aseta hiiri pisteen päälle nähdäksesi sääaseman nimen.

Klikkaa sitten nähdäksesi säähavainnot ja -ennusteet.

Kartan vaihtaminen: klikkaa mustalla rastilla varustettuja vihreitä pisteitä, niin voit zoomata sisään; viivalla varustettua vihreää pistettä, niin voit zoomata ulos tai vihreitä nuolia, niin pääset viereisille kartoille.


METAR-TAF: